sensor_id;sensor_type;location;lat;lon;timestamp;pressure;altitude;pressure_sealevel;temperature
15680;BMP180;15488;48.114;11.532;2023-02-22T00:00:39;95269.00;;;15.30
15680;BMP180;15488;48.114;11.532;2023-02-22T00:03:13;95267.00;;;15.20
15680;BMP180;15488;48.114;11.532;2023-02-22T00:05:41;95260.00;;;15.20
15680;BMP180;15488;48.114;11.532;2023-02-22T00:08:12;95270.00;;;15.20
15680;BMP180;15488;48.114;11.532;2023-02-22T00:10:40;95262.00;;;15.20
15680;BMP180;15488;48.114;11.532;2023-02-22T00:13:09;95260.00;;;15.20
15680;BMP180;15488;48.114;11.532;2023-02-22T00:15:39;95266.00;;;15.20
15680;BMP180;15488;48.114;11.532;2023-02-22T00:18:08;95260.00;;;15.20
15680;BMP180;15488;48.114;11.532;2023-02-22T00:20:38;95265.00;;;15.10
15680;BMP180;15488;48.114;11.532;2023-02-22T00:23:07;95262.00;;;15.10
15680;BMP180;15488;48.114;11.532;2023-02-22T00:25:36;95262.00;;;15.10
15680;BMP180;15488;48.114;11.532;2023-02-22T00:28:03;95258.00;;;15.20
15680;BMP180;15488;48.114;11.532;2023-02-22T00:30:32;95263.00;;;15.00
15680;BMP180;15488;48.114;11.532;2023-02-22T00:33:00;95264.00;;;15.00
15680;BMP180;15488;48.114;11.532;2023-02-22T00:35:29;95265.00;;;15.00
15680;BMP180;15488;48.114;11.532;2023-02-22T00:38:00;95264.00;;;15.10
15680;BMP180;15488;48.114;11.532;2023-02-22T00:40:29;95262.00;;;15.00
15680;BMP180;15488;48.114;11.532;2023-02-22T00:42:57;95259.00;;;14.90
15680;BMP180;15488;48.114;11.532;2023-02-22T00:45:27;95260.00;;;14.90
15680;BMP180;15488;48.114;11.532;2023-02-22T00:47:54;95252.00;;;14.90
15680;BMP180;15488;48.114;11.532;2023-02-22T00:50:24;95251.00;;;14.90
15680;BMP180;15488;48.114;11.532;2023-02-22T00:52:53;95250.00;;;14.90
15680;BMP180;15488;48.114;11.532;2023-02-22T00:55:24;95247.00;;;14.90
15680;BMP180;15488;48.114;11.532;2023-02-22T00:57:52;95252.00;;;14.90
15680;BMP180;15488;48.114;11.532;2023-02-22T01:00:22;95249.00;;;14.90
15680;BMP180;15488;48.114;11.532;2023-02-22T01:02:50;95240.00;;;14.80
15680;BMP180;15488;48.114;11.532;2023-02-22T01:05:19;95240.00;;;14.80
15680;BMP180;15488;48.114;11.532;2023-02-22T01:07:47;95238.00;;;14.80
15680;BMP180;15488;48.114;11.532;2023-02-22T01:10:17;95233.00;;;14.80
15680;BMP180;15488;48.114;11.532;2023-02-22T01:12:47;95232.00;;;14.80
15680;BMP180;15488;48.114;11.532;2023-02-22T01:15:18;95233.00;;;14.80
15680;BMP180;15488;48.114;11.532;2023-02-22T01:17:47;95232.00;;;14.80
15680;BMP180;15488;48.114;11.532;2023-02-22T01:20:15;95222.00;;;14.80
15680;BMP180;15488;48.114;11.532;2023-02-22T01:22:46;95226.00;;;14.70
15680;BMP180;15488;48.114;11.532;2023-02-22T01:25:17;95214.00;;;14.70
15680;BMP180;15488;48.114;11.532;2023-02-22T01:27:46;95213.00;;;14.80
15680;BMP180;15488;48.114;11.532;2023-02-22T01:30:17;95214.00;;;14.80
15680;BMP180;15488;48.114;11.532;2023-02-22T01:32:44;95209.00;;;14.70
15680;BMP180;15488;48.114;11.532;2023-02-22T01:35:15;95210.00;;;14.70
15680;BMP180;15488;48.114;11.532;2023-02-22T01:37:44;95216.00;;;14.70
15680;BMP180;15488;48.114;11.532;2023-02-22T01:40:17;95212.00;;;14.70
15680;BMP180;15488;48.114;11.532;2023-02-22T01:42:51;95214.00;;;14.60
15680;BMP180;15488;48.114;11.532;2023-02-22T01:45:41;95217.00;;;14.60
15680;BMP180;15488;48.114;11.532;2023-02-22T01:48:12;95213.00;;;14.60
15680;BMP180;15488;48.114;11.532;2023-02-22T01:50:45;95222.00;;;14.60
15680;BMP180;15488;48.114;11.532;2023-02-22T01:53:15;95208.00;;;14.60
15680;BMP180;15488;48.114;11.532;2023-02-22T01:55:44;95212.00;;;14.50
15680;BMP180;15488;48.114;11.532;2023-02-22T01:58:15;95206.00;;;14.50
15680;BMP180;15488;48.114;11.532;2023-02-22T02:00:43;95204.00;;;14.50
15680;BMP180;15488;48.114;11.532;2023-02-22T02:03:14;95207.00;;;14.40
15680;BMP180;15488;48.114;11.532;2023-02-22T02:05:43;95198.00;;;14.40
15680;BMP180;15488;48.114;11.532;2023-02-22T02:08:16;95203.00;;;14.40
15680;BMP180;15488;48.114;11.532;2023-02-22T02:10:48;95205.00;;;14.40
15680;BMP180;15488;48.114;11.532;2023-02-22T02:13:18;95192.00;;;14.40
15680;BMP180;15488;48.114;11.532;2023-02-22T02:15:45;95198.00;;;14.30
15680;BMP180;15488;48.114;11.532;2023-02-22T02:18:15;95197.00;;;14.30
15680;BMP180;15488;48.114;11.532;2023-02-22T02:20:49;95196.00;;;14.30
15680;BMP180;15488;48.114;11.532;2023-02-22T02:23:37;95187.00;;;14.20
15680;BMP180;15488;48.114;11.532;2023-02-22T02:26:32;95179.00;;;14.20
15680;BMP180;15488;48.114;11.532;2023-02-22T02:29:39;95175.00;;;14.20
15680;BMP180;15488;48.114;11.532;2023-02-22T02:32:30;95170.00;;;14.10
15680;BMP180;15488;48.114;11.532;2023-02-22T02:35:03;95166.00;;;14.10
15680;BMP180;15488;48.114;11.532;2023-02-22T02:37:39;95166.00;;;14.10
15680;BMP180;15488;48.114;11.532;2023-02-22T02:40:18;95166.00;;;14.10
15680;BMP180;15488;48.114;11.532;2023-02-22T02:42:53;95158.00;;;14.10
15680;BMP180;15488;48.114;11.532;2023-02-22T02:45:26;95045.00;;;14.00
15680;BMP180;15488;48.114;11.532;2023-02-22T02:47:58;95149.00;;;14.00
15680;BMP180;15488;48.114;11.532;2023-02-22T02:50:30;95149.00;;;14.00
15680;BMP180;15488;48.114;11.532;2023-02-22T02:53:02;95148.00;;;14.00
15680;BMP180;15488;48.114;11.532;2023-02-22T02:55:31;95142.00;;;14.00
15680;BMP180;15488;48.114;11.532;2023-02-22T02:58:01;95140.00;;;14.00
15680;BMP180;15488;48.114;11.532;2023-02-22T03:00:32;95132.00;;;13.90
15680;BMP180;15488;48.114;11.532;2023-02-22T03:03:24;95139.00;;;13.90
15680;BMP180;15488;48.114;11.532;2023-02-22T03:06:09;95140.00;;;13.90
15680;BMP180;15488;48.114;11.532;2023-02-22T03:08:42;95139.00;;;13.90
15680;BMP180;15488;48.114;11.532;2023-02-22T03:11:13;95139.00;;;13.80
15680;BMP180;15488;48.114;11.532;2023-02-22T03:13:49;95140.00;;;13.80
15680;BMP180;15488;48.114;11.532;2023-02-22T03:16:25;95142.00;;;13.80
15680;BMP180;15488;48.114;11.532;2023-02-22T03:19:00;95129.00;;;13.70
15680;BMP180;15488;48.114;11.532;2023-02-22T03:21:39;95133.00;;;13.70
15680;BMP180;15488;48.114;11.532;2023-02-22T03:24:15;95131.00;;;13.70
15680;BMP180;15488;48.114;11.532;2023-02-22T03:26:48;95132.00;;;13.70
15680;BMP180;15488;48.114;11.532;2023-02-22T03:29:20;95129.00;;;13.70
15680;BMP180;15488;48.114;11.532;2023-02-22T03:31:52;95128.00;;;13.70
15680;BMP180;15488;48.114;11.532;2023-02-22T03:34:24;95142.00;;;13.60
15680;BMP180;15488;48.114;11.532;2023-02-22T03:36:55;95143.00;;;13.60
15680;BMP180;15488;48.114;11.532;2023-02-22T03:39:25;95141.00;;;13.60
15680;BMP180;15488;48.114;11.532;2023-02-22T03:41:59;95151.00;;;13.70
15680;BMP180;15488;48.114;11.532;2023-02-22T03:44:29;95149.00;;;13.70
15680;BMP180;15488;48.114;11.532;2023-02-22T03:47:01;95147.00;;;13.60
15680;BMP180;15488;48.114;11.532;2023-02-22T03:49:36;95146.00;;;13.60
15680;BMP180;15488;48.114;11.532;2023-02-22T03:52:05;95149.00;;;13.70
15680;BMP180;15488;48.114;11.532;2023-02-22T03:54:33;95145.00;;;13.70
15680;BMP180;15488;48.114;11.532;2023-02-22T03:57:08;95150.00;;;13.60
15680;BMP180;15488;48.114;11.532;2023-02-22T03:59:37;95140.00;;;13.70
15680;BMP180;15488;48.114;11.532;2023-02-22T04:02:05;95150.00;;;13.70
15680;BMP180;15488;48.114;11.532;2023-02-22T04:04:34;95146.00;;;13.70
15680;BMP180;15488;48.114;11.532;2023-02-22T04:07:02;95148.00;;;13.70
15680;BMP180;15488;48.114;11.532;2023-02-22T04:09:30;95144.00;;;13.70
15680;BMP180;15488;48.114;11.532;2023-02-22T04:11:57;95142.00;;;13.70
15680;BMP180;15488;48.114;11.532;2023-02-22T04:14:25;95136.00;;;13.70
15680;BMP180;15488;48.114;11.532;2023-02-22T04:16:52;95135.00;;;13.70
15680;BMP180;15488;48.114;11.532;2023-02-22T04:19:20;95140.00;;;13.70
15680;BMP180;15488;48.114;11.532;2023-02-22T04:21:49;95135.00;;;13.70
15680;BMP180;15488;48.114;11.532;2023-02-22T04:24:16;95131.00;;;13.70
15680;BMP180;15488;48.114;11.532;2023-02-22T04:26:44;95131.00;;;13.70
15680;BMP180;15488;48.114;11.532;2023-02-22T04:29:11;95132.00;;;13.70
15680;BMP180;15488;48.114;11.532;2023-02-22T04:31:39;95137.00;;;13.70
15680;BMP180;15488;48.114;11.532;2023-02-22T04:34:06;95131.00;;;13.70
15680;BMP180;15488;48.114;11.532;2023-02-22T04:36:33;95130.00;;;13.70
15680;BMP180;15488;48.114;11.532;2023-02-22T04:39:03;95127.00;;;13.80
15680;BMP180;15488;48.114;11.532;2023-02-22T04:41:31;95129.00;;;13.70
15680;BMP180;15488;48.114;11.532;2023-02-22T04:43:59;95127.00;;;13.70
15680;BMP180;15488;48.114;11.532;2023-02-22T04:46:27;95118.00;;;13.70
15680;BMP180;15488;48.114;11.532;2023-02-22T04:48:55;95120.00;;;13.70
15680;BMP180;15488;48.114;11.532;2023-02-22T04:51:23;95120.00;;;13.70
15680;BMP180;15488;48.114;11.532;2023-02-22T04:53:51;95117.00;;;13.70
15680;BMP180;15488;48.114;11.532;2023-02-22T04:56:20;95128.00;;;13.60
15680;BMP180;15488;48.114;11.532;2023-02-22T04:58:47;95117.00;;;13.60
15680;BMP180;15488;48.114;11.532;2023-02-22T05:01:15;95117.00;;;13.60
15680;BMP180;15488;48.114;11.532;2023-02-22T05:03:43;95110.00;;;13.60
15680;BMP180;15488;48.114;11.532;2023-02-22T05:06:10;95120.00;;;13.60
15680;BMP180;15488;48.114;11.532;2023-02-22T05:08:38;95110.00;;;13.60
15680;BMP180;15488;48.114;11.532;2023-02-22T05:11:06;95112.00;;;13.60
15680;BMP180;15488;48.114;11.532;2023-02-22T05:13:35;95119.00;;;13.60
15680;BMP180;15488;48.114;11.532;2023-02-22T05:16:02;95109.00;;;13.60
15680;BMP180;15488;48.114;11.532;2023-02-22T05:18:30;95111.00;;;13.50
15680;BMP180;15488;48.114;11.532;2023-02-22T05:20:57;95106.00;;;13.50
15680;BMP180;15488;48.114;11.532;2023-02-22T05:23:24;95101.00;;;13.60
15680;BMP180;15488;48.114;11.532;2023-02-22T05:25:52;95102.00;;;13.50
15680;BMP180;15488;48.114;11.532;2023-02-22T05:28:19;95103.00;;;13.50
15680;BMP180;15488;48.114;11.532;2023-02-22T05:30:48;95105.00;;;13.50
15680;BMP180;15488;48.114;11.532;2023-02-22T05:33:16;95102.00;;;13.50
15680;BMP180;15488;48.114;11.532;2023-02-22T05:35:43;95103.00;;;13.50
15680;BMP180;15488;48.114;11.532;2023-02-22T05:38:12;95103.00;;;13.40
15680;BMP180;15488;48.114;11.532;2023-02-22T05:40:41;95098.00;;;13.40
15680;BMP180;15488;48.114;11.532;2023-02-22T05:43:09;95094.00;;;13.50
15680;BMP180;15488;48.114;11.532;2023-02-22T05:45:36;95101.00;;;13.40
15680;BMP180;15488;48.114;11.532;2023-02-22T05:48:05;95097.00;;;13.40
15680;BMP180;15488;48.114;11.532;2023-02-22T05:50:33;95093.00;;;13.40
15680;BMP180;15488;48.114;11.532;2023-02-22T05:53:00;95097.00;;;13.40
15680;BMP180;15488;48.114;11.532;2023-02-22T05:55:28;95094.00;;;13.40
15680;BMP180;15488;48.114;11.532;2023-02-22T05:57:55;95095.00;;;13.40
15680;BMP180;15488;48.114;11.532;2023-02-22T06:00:25;95091.00;;;13.40
15680;BMP180;15488;48.114;11.532;2023-02-22T06:02:54;95093.00;;;13.40
15680;BMP180;15488;48.114;11.532;2023-02-22T06:05:23;95084.00;;;13.30
15680;BMP180;15488;48.114;11.532;2023-02-22T06:07:51;95093.00;;;13.40
15680;BMP180;15488;48.114;11.532;2023-02-22T06:10:19;95087.00;;;13.30
15680;BMP180;15488;48.114;11.532;2023-02-22T06:12:47;95085.00;;;13.30
15680;BMP180;15488;48.114;11.532;2023-02-22T06:15:15;95089.00;;;13.30
15680;BMP180;15488;48.114;11.532;2023-02-22T06:17:43;95093.00;;;13.30
15680;BMP180;15488;48.114;11.532;2023-02-22T06:20:12;95087.00;;;13.30
15680;BMP180;15488;48.114;11.532;2023-02-22T06:22:41;95103.00;;;13.30
15680;BMP180;15488;48.114;11.532;2023-02-22T06:25:12;95098.00;;;13.30
15680;BMP180;15488;48.114;11.532;2023-02-22T06:27:39;95096.00;;;13.30
15680;BMP180;15488;48.114;11.532;2023-02-22T06:30:08;95089.00;;;13.30
15680;BMP180;15488;48.114;11.532;2023-02-22T06:32:35;95092.00;;;13.30
15680;BMP180;15488;48.114;11.532;2023-02-22T06:35:03;95093.00;;;13.30
15680;BMP180;15488;48.114;11.532;2023-02-22T06:37:31;95094.00;;;13.30
15680;BMP180;15488;48.114;11.532;2023-02-22T06:39:59;95095.00;;;13.30
15680;BMP180;15488;48.114;11.532;2023-02-22T06:42:27;95099.00;;;13.30
15680;BMP180;15488;48.114;11.532;2023-02-22T06:44:54;95104.00;;;13.30
15680;BMP180;15488;48.114;11.532;2023-02-22T06:47:22;95114.00;;;13.30
15680;BMP180;15488;48.114;11.532;2023-02-22T06:49:52;95111.00;;;13.30
15680;BMP180;15488;48.114;11.532;2023-02-22T06:52:20;95117.00;;;13.30
15680;BMP180;15488;48.114;11.532;2023-02-22T06:54:48;95128.00;;;13.30
15680;BMP180;15488;48.114;11.532;2023-02-22T06:57:18;95117.00;;;13.30
15680;BMP180;15488;48.114;11.532;2023-02-22T06:59:45;95128.00;;;13.30
15680;BMP180;15488;48.114;11.532;2023-02-22T07:02:13;95129.00;;;13.30
15680;BMP180;15488;48.114;11.532;2023-02-22T07:04:41;95125.00;;;13.30
15680;BMP180;15488;48.114;11.532;2023-02-22T07:07:08;95121.00;;;13.30
15680;BMP180;15488;48.114;11.532;2023-02-22T07:09:36;95127.00;;;13.30
15680;BMP180;15488;48.114;11.532;2023-02-22T07:12:04;95121.00;;;13.30
15680;BMP180;15488;48.114;11.532;2023-02-22T07:14:33;95120.00;;;13.30
15680;BMP180;15488;48.114;11.532;2023-02-22T07:17:01;95116.00;;;13.30
15680;BMP180;15488;48.114;11.532;2023-02-22T07:19:28;95127.00;;;13.30
15680;BMP180;15488;48.114;11.532;2023-02-22T07:21:55;95123.00;;;13.30
15680;BMP180;15488;48.114;11.532;2023-02-22T07:24:24;95122.00;;;13.30
15680;BMP180;15488;48.114;11.532;2023-02-22T07:26:53;95018.00;;;13.30
15680;BMP180;15488;48.114;11.532;2023-02-22T07:29:20;95124.00;;;13.40
15680;BMP180;15488;48.114;11.532;2023-02-22T07:31:50;95123.00;;;13.40
15680;BMP180;15488;48.114;11.532;2023-02-22T07:34:17;95126.00;;;13.40
15680;BMP180;15488;48.114;11.532;2023-02-22T07:36:45;95120.00;;;13.50
15680;BMP180;15488;48.114;11.532;2023-02-22T07:39:12;95119.00;;;13.50
15680;BMP180;15488;48.114;11.532;2023-02-22T07:41:39;95120.00;;;13.50
15680;BMP180;15488;48.114;11.532;2023-02-22T07:44:07;95121.00;;;13.60
15680;BMP180;15488;48.114;11.532;2023-02-22T07:46:34;95117.00;;;13.50
15680;BMP180;15488;48.114;11.532;2023-02-22T07:49:03;95110.00;;;13.50
15680;BMP180;15488;48.114;11.532;2023-02-22T07:51:31;95114.00;;;13.60
15680;BMP180;15488;48.114;11.532;2023-02-22T07:53:58;95121.00;;;13.70
15680;BMP180;15488;48.114;11.532;2023-02-22T07:56:25;95117.00;;;13.70
15680;BMP180;15488;48.114;11.532;2023-02-22T07:58:53;95116.00;;;13.70
15680;BMP180;15488;48.114;11.532;2023-02-22T08:01:20;95111.00;;;13.70
15680;BMP180;15488;48.114;11.532;2023-02-22T08:03:49;95103.00;;;13.70
15680;BMP180;15488;48.114;11.532;2023-02-22T08:06:19;95109.00;;;13.80
15680;BMP180;15488;48.114;11.532;2023-02-22T08:08:50;95110.00;;;13.80
15680;BMP180;15488;48.114;11.532;2023-02-22T08:11:18;95103.00;;;13.80
15680;BMP180;15488;48.114;11.532;2023-02-22T08:13:45;95106.00;;;13.90
15680;BMP180;15488;48.114;11.532;2023-02-22T08:16:13;95113.00;;;14.00
15680;BMP180;15488;48.114;11.532;2023-02-22T08:18:40;95098.00;;;14.00
15680;BMP180;15488;48.114;11.532;2023-02-22T08:21:08;95093.00;;;14.00
15680;BMP180;15488;48.114;11.532;2023-02-22T08:23:37;95092.00;;;14.10
15680;BMP180;15488;48.114;11.532;2023-02-22T08:26:05;95090.00;;;14.10
15680;BMP180;15488;48.114;11.532;2023-02-22T08:28:33;95087.00;;;14.20
15680;BMP180;15488;48.114;11.532;2023-02-22T08:31:00;95085.00;;;14.20
15680;BMP180;15488;48.114;11.532;2023-02-22T08:33:28;95082.00;;;14.20
15680;BMP180;15488;48.114;11.532;2023-02-22T08:35:55;95089.00;;;14.30
15680;BMP180;15488;48.114;11.532;2023-02-22T08:38:26;95093.00;;;14.40
15680;BMP180;15488;48.114;11.532;2023-02-22T08:40:55;95084.00;;;14.40
15680;BMP180;15488;48.114;11.532;2023-02-22T08:43:23;95084.00;;;14.50
15680;BMP180;15488;48.114;11.532;2023-02-22T08:45:51;95084.00;;;14.60
15680;BMP180;15488;48.114;11.532;2023-02-22T08:48:19;95078.00;;;14.70
15680;BMP180;15488;48.114;11.532;2023-02-22T08:50:47;95083.00;;;14.70
15680;BMP180;15488;48.114;11.532;2023-02-22T08:53:15;95076.00;;;14.80
15680;BMP180;15488;48.114;11.532;2023-02-22T08:55:44;95076.00;;;14.90
15680;BMP180;15488;48.114;11.532;2023-02-22T08:58:13;95076.00;;;14.90
15680;BMP180;15488;48.114;11.532;2023-02-22T09:00:41;95071.00;;;15.00
15680;BMP180;15488;48.114;11.532;2023-02-22T09:03:12;95084.00;;;15.00
15680;BMP180;15488;48.114;11.532;2023-02-22T09:05:40;95067.00;;;15.10
15680;BMP180;15488;48.114;11.532;2023-02-22T09:08:08;95062.00;;;15.20
15680;BMP180;15488;48.114;11.532;2023-02-22T09:10:36;95065.00;;;15.20
15680;BMP180;15488;48.114;11.532;2023-02-22T09:13:04;95066.00;;;15.30
15680;BMP180;15488;48.114;11.532;2023-02-22T09:15:33;95064.00;;;15.40
15680;BMP180;15488;48.114;11.532;2023-02-22T09:18:02;95060.00;;;15.40
15680;BMP180;15488;48.114;11.532;2023-02-22T09:20:30;95068.00;;;15.60
15680;BMP180;15488;48.114;11.532;2023-02-22T09:22:58;95063.00;;;15.60
15680;BMP180;15488;48.114;11.532;2023-02-22T09:25:28;95067.00;;;15.70
15680;BMP180;15488;48.114;11.532;2023-02-22T09:27:56;95063.00;;;15.70
15680;BMP180;15488;48.114;11.532;2023-02-22T09:30:25;95060.00;;;15.80
15680;BMP180;15488;48.114;11.532;2023-02-22T09:33:00;95060.00;;;15.90
15680;BMP180;15488;48.114;11.532;2023-02-22T09:35:27;95054.00;;;16.00
15680;BMP180;15488;48.114;11.532;2023-02-22T09:37:56;95052.00;;;16.10
15680;BMP180;15488;48.114;11.532;2023-02-22T09:40:25;95053.00;;;16.20
15680;BMP180;15488;48.114;11.532;2023-02-22T09:43:08;95057.00;;;16.20
15680;BMP180;15488;48.114;11.532;2023-02-22T09:45:45;95055.00;;;16.30
15680;BMP180;15488;48.114;11.532;2023-02-22T09:48:19;95047.00;;;16.40
15680;BMP180;15488;48.114;11.532;2023-02-22T09:50:48;95052.00;;;16.50
15680;BMP180;15488;48.114;11.532;2023-02-22T09:53:22;95045.00;;;16.60
15680;BMP180;15488;48.114;11.532;2023-02-22T09:55:58;95041.00;;;16.60
15680;BMP180;15488;48.114;11.532;2023-02-22T09:58:31;95037.00;;;16.70
15680;BMP180;15488;48.114;11.532;2023-02-22T10:01:09;95043.00;;;16.80
15680;BMP180;15488;48.114;11.532;2023-02-22T10:03:48;95037.00;;;16.90
15680;BMP180;15488;48.114;11.532;2023-02-22T10:06:20;95034.00;;;17.00
15680;BMP180;15488;48.114;11.532;2023-02-22T10:08:52;95029.00;;;17.10
15680;BMP180;15488;48.114;11.532;2023-02-22T10:11:33;95029.00;;;17.10
15680;BMP180;15488;48.114;11.532;2023-02-22T10:14:17;95027.00;;;17.20
15680;BMP180;15488;48.114;11.532;2023-02-22T10:16:59;95021.00;;;17.30
15680;BMP180;15488;48.114;11.532;2023-02-22T10:19:39;95023.00;;;17.40
15680;BMP180;15488;48.114;11.532;2023-02-22T10:22:35;95016.00;;;17.50
15680;BMP180;15488;48.114;11.532;2023-02-22T10:25:09;95015.00;;;17.60
15680;BMP180;15488;48.114;11.532;2023-02-22T10:27:41;95020.00;;;17.70
15680;BMP180;15488;48.114;11.532;2023-02-22T10:30:16;95015.00;;;17.90
15680;BMP180;15488;48.114;11.532;2023-02-22T10:32:49;95015.00;;;17.90
15680;BMP180;15488;48.114;11.532;2023-02-22T10:35:22;95016.00;;;18.00
15680;BMP180;15488;48.114;11.532;2023-02-22T10:37:53;95013.00;;;18.20
15680;BMP180;15488;48.114;11.532;2023-02-22T10:40:23;95015.00;;;18.20
15680;BMP180;15488;48.114;11.532;2023-02-22T10:42:59;95012.00;;;18.40
15680;BMP180;15488;48.114;11.532;2023-02-22T10:45:28;95006.00;;;18.50
15680;BMP180;15488;48.114;11.532;2023-02-22T10:47:59;95008.00;;;18.60
15680;BMP180;15488;48.114;11.532;2023-02-22T10:50:31;95012.00;;;18.70
15680;BMP180;15488;48.114;11.532;2023-02-22T10:52:59;95004.00;;;18.80
15680;BMP180;15488;48.114;11.532;2023-02-22T10:55:27;95004.00;;;18.90
15680;BMP180;15488;48.114;11.532;2023-02-22T10:58:01;95007.00;;;19.00
15680;BMP180;15488;48.114;11.532;2023-02-22T11:00:32;95002.00;;;19.10
15680;BMP180;15488;48.114;11.532;2023-02-22T11:03:04;95001.00;;;19.20
15680;BMP180;15488;48.114;11.532;2023-02-22T11:05:37;94997.00;;;19.30
15680;BMP180;15488;48.114;11.532;2023-02-22T11:08:24;94995.00;;;19.40
15680;BMP180;15488;48.114;11.532;2023-02-22T11:10:54;94991.00;;;19.50
15680;BMP180;15488;48.114;11.532;2023-02-22T11:13:27;94990.00;;;19.60
15680;BMP180;15488;48.114;11.532;2023-02-22T11:15:58;94993.00;;;19.70
15680;BMP180;15488;48.114;11.532;2023-02-22T11:18:28;94984.00;;;19.80
15680;BMP180;15488;48.114;11.532;2023-02-22T11:21:03;94976.00;;;19.90
15680;BMP180;15488;48.114;11.532;2023-02-22T11:23:31;94975.00;;;20.00
15680;BMP180;15488;48.114;11.532;2023-02-22T11:26:07;94969.00;;;20.00
15680;BMP180;15488;48.114;11.532;2023-02-22T11:28:35;94964.00;;;20.20
15680;BMP180;15488;48.114;11.532;2023-02-22T11:31:13;94965.00;;;20.20
15680;BMP180;15488;48.114;11.532;2023-02-22T11:33:49;94965.00;;;20.30
15680;BMP180;15488;48.114;11.532;2023-02-22T11:36:30;94953.00;;;20.50
15680;BMP180;15488;48.114;11.532;2023-02-22T11:38:58;94959.00;;;20.60
15680;BMP180;15488;48.114;11.532;2023-02-22T11:41:28;94955.00;;;20.70
15680;BMP180;15488;48.114;11.532;2023-02-22T11:44:13;94948.00;;;20.80
15680;BMP180;15488;48.114;11.532;2023-02-22T11:46:41;94947.00;;;20.90
15680;BMP180;15488;48.114;11.532;2023-02-22T11:49:11;94945.00;;;21.00
15680;BMP180;15488;48.114;11.532;2023-02-22T11:52:00;94933.00;;;21.10
15680;BMP180;15488;48.114;11.532;2023-02-22T11:55:01;94940.00;;;21.20
15680;BMP180;15488;48.114;11.532;2023-02-22T11:57:43;94930.00;;;21.40
15680;BMP180;15488;48.114;11.532;2023-02-22T12:00:18;94934.00;;;21.50
15680;BMP180;15488;48.114;11.532;2023-02-22T12:03:20;94934.00;;;21.70
15680;BMP180;15488;48.114;11.532;2023-02-22T12:06:11;94935.00;;;21.90
15680;BMP180;15488;48.114;11.532;2023-02-22T12:08:54;94929.00;;;22.00
15680;BMP180;15488;48.114;11.532;2023-02-22T12:11:29;94930.00;;;22.20
15680;BMP180;15488;48.114;11.532;2023-02-22T12:14:06;94923.00;;;22.00
15680;BMP180;15488;48.114;11.532;2023-02-22T12:16:45;94918.00;;;22.50
15680;BMP180;15488;48.114;11.532;2023-02-22T12:19:23;94921.00;;;22.70
15680;BMP180;15488;48.114;11.532;2023-02-22T12:21:56;94921.00;;;22.80
15680;BMP180;15488;48.114;11.532;2023-02-22T12:24:32;94915.00;;;23.00
15680;BMP180;15488;48.114;11.532;2023-02-22T12:27:02;94912.00;;;23.10
15680;BMP180;15488;48.114;11.532;2023-02-22T12:29:38;94906.00;;;23.30
15680;BMP180;15488;48.114;11.532;2023-02-22T12:32:13;94904.00;;;23.50
15680;BMP180;15488;48.114;11.532;2023-02-22T12:34:45;94909.00;;;23.70
15680;BMP180;15488;48.114;11.532;2023-02-22T12:37:19;94907.00;;;23.90
15680;BMP180;15488;48.114;11.532;2023-02-22T12:40:00;94911.00;;;24.10
15680;BMP180;15488;48.114;11.532;2023-02-22T12:42:43;94903.00;;;24.30
15680;BMP180;15488;48.114;11.532;2023-02-22T12:45:20;94902.00;;;24.60
15680;BMP180;15488;48.114;11.532;2023-02-22T12:47:53;94900.00;;;24.90
15680;BMP180;15488;48.114;11.532;2023-02-22T12:50:28;94899.00;;;25.20
15680;BMP180;15488;48.114;11.532;2023-02-22T12:53:03;94890.00;;;25.50
15680;BMP180;15488;48.114;11.532;2023-02-22T12:55:39;94893.00;;;25.80
15680;BMP180;15488;48.114;11.532;2023-02-22T12:58:19;94889.00;;;26.10
15680;BMP180;15488;48.114;11.532;2023-02-22T13:00:55;94885.00;;;26.50
15680;BMP180;15488;48.114;11.532;2023-02-22T13:03:34;94885.00;;;26.90
15680;BMP180;15488;48.114;11.532;2023-02-22T13:06:20;94887.00;;;27.40
15680;BMP180;15488;48.114;11.532;2023-02-22T13:11:50;94883.00;;;28.10
15680;BMP180;15488;48.114;11.532;2023-02-22T13:14:34;94884.00;;;28.00
15680;BMP180;15488;48.114;11.532;2023-02-22T13:17:08;94878.00;;;28.00
15680;BMP180;15488;48.114;11.532;2023-02-22T13:19:43;94882.00;;;28.00
15680;BMP180;15488;48.114;11.532;2023-02-22T13:22:18;94876.00;;;28.10
15680;BMP180;15488;48.114;11.532;2023-02-22T13:24:58;94871.00;;;28.10
15680;BMP180;15488;48.114;11.532;2023-02-22T13:27:34;94870.00;;;28.00
15680;BMP180;15488;48.114;11.532;2023-02-22T13:30:08;94868.00;;;28.00
15680;BMP180;15488;48.114;11.532;2023-02-22T13:32:58;94866.00;;;28.20
15680;BMP180;15488;48.114;11.532;2023-02-22T13:35:39;94873.00;;;28.60
15680;BMP180;15488;48.114;11.532;2023-02-22T13:38:27;94867.00;;;29.00
15680;BMP180;15488;48.114;11.532;2023-02-22T13:41:14;94857.00;;;29.60
15680;BMP180;15488;48.114;11.532;2023-02-22T13:44:04;94853.00;;;30.40
15680;BMP180;15488;48.114;11.532;2023-02-22T13:47:03;94859.00;;;31.40
15680;BMP180;15488;48.114;11.532;2023-02-22T13:49:50;94857.00;;;32.10
15680;BMP180;15488;48.114;11.532;2023-02-22T13:52:20;94860.00;;;32.70
15680;BMP180;15488;48.114;11.532;2023-02-22T13:54:52;94831.00;;;33.30
15680;BMP180;15488;48.114;11.532;2023-02-22T13:57:22;94858.00;;;33.80
15680;BMP180;15488;48.114;11.532;2023-02-22T14:00:19;94859.00;;;34.30
15680;BMP180;15488;48.114;11.532;2023-02-22T14:03:01;94853.00;;;34.70
15680;BMP180;15488;48.114;11.532;2023-02-22T14:05:36;94859.00;;;34.80
15680;BMP180;15488;48.114;11.532;2023-02-22T14:08:04;94861.00;;;34.80
15680;BMP180;15488;48.114;11.532;2023-02-22T14:10:45;94860.00;;;34.70
15680;BMP180;15488;48.114;11.532;2023-02-22T14:13:14;94864.00;;;34.30
15680;BMP180;15488;48.114;11.532;2023-02-22T14:16:19;94858.00;;;34.00
15680;BMP180;15488;48.114;11.532;2023-02-22T14:18:48;94862.00;;;34.10
15680;BMP180;15488;48.114;11.532;2023-02-22T14:21:18;94864.00;;;34.20
15680;BMP180;15488;48.114;11.532;2023-02-22T14:23:47;94876.00;;;34.30
15680;BMP180;15488;48.114;11.532;2023-02-22T14:26:18;94865.00;;;34.60